Time;durP1;ratioP1;P1;durP2;ratioP2;P2;SDS_P1;SDS_P2;PMS_P1;PMS_P2;Temp;Humidity;BMP_temperature;BMP_pressure;BME280_temperature;BME280_humidity;BME280_pressure;Samples;Min_cycle;Max_cycle;Signal;HPM_P1;HPM_P2
2022/03/22 00:01:25;;;;;;;609.45;347.90;;;4.90;99.90;;;;;;4837660;29;20048;-70
2022/03/22 00:03:52;;;;;;;1.73;0.95;;;4.90;99.90;;;;;;4825948;29;20414;-69
2022/03/22 00:06:20;;;;;;;1.20;1.10;;;4.90;99.90;;;;;;4812688;29;20059;-69
2022/03/22 00:08:47;;;;;;;1.63;0.73;;;5.00;99.90;;;;;;4801794;29;20635;-69
2022/03/22 00:11:13;;;;;;;0.50;0.50;;;5.00;99.90;;;;;;4772505;29;20051;-69
2022/03/22 00:13:39;;;;;;;0.93;0.93;;;4.90;99.90;;;;;;4751822;29;20592;-70
2022/03/22 00:16:07;;;;;;;0.98;0.98;;;4.90;99.90;;;;;;4790033;29;20153;-70
2022/03/22 00:18:35;;;;;;;5.05;3.88;;;4.90;99.90;;;;;;4780516;29;21537;-69
2022/03/22 00:21:00;;;;;;;5.65;3.38;;;4.90;99.90;;;;;;4809069;28;20050;-70
2022/03/22 00:23:26;;;;;;;2.25;2.15;;;4.80;99.90;;;;;;4844126;28;20050;-69
2022/03/22 00:25:52;;;;;;;0.30;0.30;;;4.80;99.90;;;;;;4925352;29;20117;-69
2022/03/22 00:28:18;;;;;;;0.75;0.75;;;4.90;99.90;;;;;;4919224;29;20137;-70
2022/03/22 00:30:44;;;;;;;1.17;1.17;;;4.80;99.90;;;;;;4901864;29;20416;-69
2022/03/22 00:33:10;;;;;;;0.40;0.40;;;4.80;99.90;;;;;;4945111;29;20059;-69
2022/03/22 00:35:38;;;;;;;2.28;1.75;;;4.70;99.90;;;;;;4912127;29;20321;-70
2022/03/22 00:38:11;;;;;;;0.40;0.40;;;4.70;99.90;;;;;;4947568;28;20211;-69
2022/03/22 00:40:37;;;;;;;0.50;0.50;;;4.70;99.90;;;;;;4996907;28;20742;-70
2022/03/22 00:43:04;;;;;;;2.03;1.88;;;4.60;99.90;;;;;;4992411;28;20423;-69
2022/03/22 00:45:32;;;;;;;0.40;0.40;;;4.70;99.90;;;;;;4990463;28;20033;-70
2022/03/22 00:48:01;;;;;;;0.30;0.30;;;4.70;99.90;;;;;;4965727;28;20065;-70
2022/03/22 00:50:29;;;;;;;0.43;0.43;;;4.70;99.90;;;;;;4942228;28;20188;-70
2022/03/22 00:52:56;;;;;;;2.13;2.00;;;4.80;99.90;;;;;;4892591;28;21472;-70
2022/03/22 00:55:24;;;;;;;0.63;0.63;;;4.80;99.90;;;;;;4855863;28;20925;-69
2022/03/22 00:57:53;;;;;;;0.50;0.50;;;4.90;99.90;;;;;;4857408;28;20076;-72
2022/03/22 01:00:20;;;;;;;1.50;1.42;;;4.90;99.90;;;;;;4898159;28;20634;-72
2022/03/22 01:02:49;;;;;;;3.05;2.35;;;4.90;99.90;;;;;;4906294;28;20572;-71
2022/03/22 01:05:40;;;;;;;0.30;0.30;;;4.90;99.90;;;;;;4872122;28;20185;-70
2022/03/22 01:08:17;;;;;;;0.70;0.70;;;4.90;99.90;;;;;;4853079;28;20538;-69
2022/03/22 01:11:07;;;;;;;0.30;0.30;;;4.90;99.90;;;;;;4837447;28;21792;-70
2022/03/22 01:13:36;;;;;;;1.20;1.13;;;4.80;99.90;;;;;;4796281;29;20313;-71
2022/03/22 01:16:02;;;;;;;0.47;0.47;;;4.80;99.90;;;;;;4793810;29;20817;-70
2022/03/22 01:21:28;;;;;;;0.40;0.40;;;4.70;99.90;;;;;;4803112;29;21180;-70
2022/03/22 01:23:54;;;;;;;2.53;1.90;;;4.70;99.90;;;;;;4783374;29;20253;-70
2022/03/22 01:26:19;;;;;;;5.47;4.72;;;4.70;99.90;;;;;;4811579;29;21924;-70
2022/03/22 01:28:46;;;;;;;0.90;0.90;;;4.80;99.90;;;;;;4841458;29;20879;-68
2022/03/22 01:34:27;;;;;;;0.50;0.50;;;4.80;99.90;;;;;;4759171;29;21152;-69
2022/03/22 01:36:52;;;;;;;0.73;0.73;;;4.80;99.90;;;;;;4744387;29;21376;-69
2022/03/22 01:45:58;;;;;;;2.72;2.53;;;4.70;99.90;;;;;;4781432;29;20564;-70
2022/03/22 01:48:40;;;;;;;0.75;0.75;;;4.70;99.90;;;;;;4775265;29;20065;-70
2022/03/22 01:51:13;;;;;;;0.43;0.43;;;4.70;99.90;;;;;;4771955;29;20472;-70
2022/03/22 01:53:43;;;;;;;0.50;0.50;;;4.70;99.90;;;;;;4808130;29;20059;-69
2022/03/22 01:56:09;;;;;;;0.47;0.47;;;4.70;99.90;;;;;;4776609;29;20261;-69
2022/03/22 01:58:37;;;;;;;1.23;1.13;;;4.70;99.90;;;;;;4789320;29;20064;-69
2022/03/22 02:06:33;;;;;;;0.60;0.60;;;4.80;99.90;;;;;;4798384;29;20760;-69
2022/03/22 02:09:03;;;;;;;0.85;0.85;;;4.80;99.90;;;;;;4785894;29;20581;-69
2022/03/22 02:11:29;;;;;;;0.60;0.60;;;4.80;99.90;;;;;;4804733;29;20184;-69
2022/03/22 02:13:57;;;;;;;0.45;0.45;;;4.90;99.90;;;;;;4830085;28;21577;-69
2022/03/22 02:16:29;;;;;;;0.77;0.77;;;4.90;99.90;;;;;;4753383;29;20336;-70
2022/03/22 02:18:54;;;;;;;1.27;1.27;;;4.90;99.90;;;;;;4797314;28;20848;-69
2022/03/22 02:24:36;;;;;;;1.92;1.77;;;4.90;99.90;;;;;;4922165;28;20460;-70
2022/03/22 02:27:02;;;;;;;0.75;0.75;;;4.90;99.90;;;;;;4955292;28;20126;-69
2022/03/22 02:29:28;;;;;;;2.78;2.58;;;4.90;99.90;;;;;;4962668;28;20137;-69
2022/03/22 02:31:54;;;;;;;2.35;2.25;;;4.90;99.90;;;;;;4903993;28;20050;-70
2022/03/22 02:34:20;;;;;;;3.55;3.28;;;4.90;99.90;;;;;;4865280;28;21322;-70
2022/03/22 02:40:05;;;;;;;0.57;0.57;;;4.90;99.90;;;;;;4768758;29;20637;-70
2022/03/22 02:42:31;;;;;;;7.05;3.42;;;4.90;99.90;;;;;;4890222;29;20139;-69
2022/03/22 02:44:57;;;;;;;2.03;1.92;;;5.00;99.90;;;;;;4910463;29;20130;-70
2022/03/22 02:47:22;;;;;;;0.73;0.73;;;5.00;99.90;;;;;;4887421;29;20493;-69
2022/03/22 02:49:48;;;;;;;0.80;0.80;;;5.00;99.90;;;;;;4828357;29;20460;-70
2022/03/22 02:53:00;;;;;;;0.95;0.95;;;4.90;99.90;;;;;;4818085;29;20709;-70
2022/03/22 02:55:26;;;;;;;1.08;1.08;;;4.90;99.90;;;;;;4688689;29;20379;-70
2022/03/22 02:57:51;;;;;;;1.42;1.33;;;4.90;99.90;;;;;;4698138;29;20467;-70
2022/03/22 03:00:32;;;;;;;5.00;3.88;;;4.90;99.90;;;;;;4674418;29;20057;-70
2022/03/22 03:06:35;;;;;;;2.55;2.42;;;4.80;99.90;;;;;;4685665;29;20083;-69
2022/03/22 03:09:03;;;;;;;7.22;3.65;;;4.70;99.90;;;;;;4729444;30;20060;-69
2022/03/22 03:11:30;;;;;;;3.13;2.90;;;4.60;99.90;;;;;;4658944;30;20455;-72
2022/03/22 03:14:47;;;;;;;4.53;3.13;;;4.50;99.90;;;;;;4655171;30;20055;-70
2022/03/22 03:17:28;;;;;;;0.40;0.40;;;4.40;99.90;;;;;;4637258;29;21650;-70
2022/03/22 03:19:53;;;;;;;1.20;1.10;;;4.30;99.90;;;;;;4656115;29;20709;-69
2022/03/22 03:22:19;;;;;;;3.30;2.95;;;4.30;99.90;;;;;;4649777;29;20362;-70
2022/03/22 03:25:09;;;;;;;4.88;4.10;;;4.30;99.90;;;;;;4655470;29;20112;-69
2022/03/22 03:27:50;;;;;;;1.38;1.33;;;4.30;99.90;;;;;;4622977;29;21118;-69
2022/03/22 03:30:54;;;;;;;1.77;1.65;;;4.20;99.90;;;;;;4664962;30;21054;-69
2022/03/22 03:36:28;;;;;;;1.67;1.58;;;4.10;99.90;;;;;;4582078;30;21980;-70
2022/03/22 03:39:09;;;;;;;0.30;0.30;;;4.10;99.90;;;;;;4602662;30;21080;-69
2022/03/22 03:42:27;;;;;;;2.40;2.20;;;4.10;99.90;;;;;;4593363;30;20167;-70
2022/03/22 03:47:58;;;;;;;1.48;1.40;;;4.10;99.90;;;;;;4630161;29;20055;-69
2022/03/22 03:50:25;;;;;;;1.35;1.33;;;4.10;99.90;;;;;;4659931;29;20289;-69
2022/03/22 03:52:56;;;;;;;0.30;0.30;;;4.10;99.90;;;;;;4636891;29;21165;-69
2022/03/22 03:55:21;;;;;;;1.75;1.55;;;4.10;99.90;;;;;;4662500;29;20102;-68
2022/03/22 03:57:49;;;;;;;0.40;0.40;;;4.10;99.90;;;;;;4675668;29;20461;-69
2022/03/22 04:03:24;;;;;;;1.52;1.45;;;4.10;99.90;;;;;;4759626;29;20058;-70
2022/03/22 04:05:49;;;;;;;0.30;0.30;;;4.20;99.90;;;;;;4799431;29;21311;-70
2022/03/22 04:09:03;;;;;;;2.60;1.92;;;4.30;99.90;;;;;;4779856;29;20467;-69
2022/03/22 04:11:39;;;;;;;;;;;4.30;99.90;;;;;;4766476;29;20080;-70
2022/03/22 04:14:06;;;;;;;6.10;0.95;;;4.40;99.90;;;;;;4736132;29;22312;-70
2022/03/22 04:16:31;;;;;;;0.40;0.40;;;4.30;99.90;;;;;;4729527;29;20295;-70
2022/03/22 04:19:40;;;;;;;5.47;4.97;;;4.30;99.90;;;;;;4748267;29;20049;-70
2022/03/22 04:22:37;;;;;;;12.25;4.60;;;4.30;99.90;;;;;;5003602;27;20434;-70
2022/03/22 04:25:04;;;;;;;5.47;4.15;;;4.40;99.90;;;;;;5004130;28;20036;-70
2022/03/22 04:36:55;;;;;;;1.85;1.75;;;4.50;99.90;;;;;;4853486;28;20203;-69
2022/03/22 04:42:23;;;;;;;0.60;0.60;;;4.40;99.90;;;;;;4839955;28;20523;-69
2022/03/22 04:44:51;;;;;;;3.83;2.45;;;4.20;99.90;;;;;;4847921;28;20207;-70
2022/03/22 04:47:17;;;;;;;9.43;6.05;;;4.10;99.90;;;;;;4828450;28;20058;-69
2022/03/22 04:50:06;;;;;;;3.92;2.47;;;4.10;99.90;;;;;;4848916;28;21376;-69
2022/03/22 04:58:23;;;;;;;3.30;3.00;;;4.10;99.90;;;;;;4770050;29;20755;-69
2022/03/22 05:01:14;;;;;;;5.57;3.90;;;4.20;99.90;;;;;;4777885;29;20057;-69
2022/03/22 05:03:40;;;;;;;2.10;2.00;;;4.20;99.90;;;;;;4755417;29;20196;-70
2022/03/22 05:09:14;;;;;;;2.53;1.20;;;4.30;99.90;;;;;;4744600;29;20160;-70
2022/03/22 05:11:43;;;;;;;1.05;1.05;;;4.20;99.90;;;;;;4711141;29;20673;-69
2022/03/22 05:14:09;;;;;;;0.68;0.68;;;4.20;99.90;;;;;;4752002;29;20057;-69
2022/03/22 05:16:38;;;;;;;15.82;3.90;;;4.10;99.90;;;;;;4761647;29;20142;-69
2022/03/22 05:19:07;;;;;;;0.40;0.40;;;4.10;99.90;;;;;;4800839;28;20066;-69
2022/03/22 05:21:33;;;;;;;1.25;1.25;;;4.00;99.90;;;;;;4855343;28;20046;-69
2022/03/22 05:24:02;;;;;;;10.50;4.47;;;3.90;99.90;;;;;;4862666;28;20716;-69
2022/03/22 05:26:27;;;;;;;5.18;4.03;;;3.80;99.90;;;;;;4855564;28;21129;-69
2022/03/22 05:28:54;;;;;;;0.93;0.93;;;3.70;99.90;;;;;;4858400;28;20051;-69
2022/03/22 05:31:45;;;;;;;1.17;1.17;;;3.60;99.90;;;;;;4870206;28;20446;-69
2022/03/22 05:34:16;;;;;;;3.35;2.72;;;3.60;99.90;;;;;;4813515;29;20059;-69
2022/03/22 05:36:42;;;;;;;4.88;4.30;;;3.60;99.90;;;;;;4897280;29;20060;-71
2022/03/22 05:39:08;;;;;;;2.40;2.28;;;3.60;99.90;;;;;;4905014;29;20048;-70
2022/03/22 05:41:33;;;;;;;2.63;1.95;;;3.60;99.90;;;;;;4997214;28;20049;-71
2022/03/22 05:44:03;;;;;;;0.65;0.65;;;3.60;99.90;;;;;;4999322;28;20045;-69
2022/03/22 05:46:29;;;;;;;0.30;0.30;;;3.50;99.90;;;;;;5002113;28;20155;-68
2022/03/22 05:48:55;;;;;;;1.38;1.23;;;3.40;99.90;;;;;;5006261;28;20562;-69
2022/03/22 05:51:20;;;;;;;0.75;0.75;;;3.30;99.90;;;;;;4989238;28;20057;-68
2022/03/22 05:53:46;;;;;;;1.45;1.35;;;3.30;99.90;;;;;;4945303;28;20056;-69
2022/03/22 05:56:12;;;;;;;0.50;0.50;;;3.30;99.90;;;;;;4928134;28;20124;-69
2022/03/22 05:58:38;;;;;;;1.13;1.13;;;3.40;99.90;;;;;;4945819;28;20085;-69
2022/03/22 06:01:05;;;;;;;0.98;0.98;;;3.40;99.90;;;;;;4926648;28;20889;-69
2022/03/22 06:03:35;;;;;;;0.40;0.40;;;3.50;99.90;;;;;;4907933;28;20615;-69
2022/03/22 06:06:03;;;;;;;2.72;2.45;;;3.60;99.90;;;;;;4902972;28;20571;-69
2022/03/22 06:09:04;;;;;;;0.82;0.82;;;3.70;99.90;;;;;;4925406;28;20504;-69
2022/03/22 06:11:36;;;;;;;0.88;0.88;;;3.90;99.90;;;;;;4874844;28;21101;-69
2022/03/22 06:14:05;;;;;;;2.25;2.15;;;4.00;99.90;;;;;;4863732;28;20405;-69
2022/03/22 06:16:32;;;;;;;4.65;2.50;;;4.10;99.90;;;;;;4864072;28;20069;-69
2022/03/22 06:18:58;;;;;;;3.25;1.50;;;4.30;99.90;;;;;;4869993;28;20502;-69
2022/03/22 06:21:32;;;;;;;4.70;3.67;;;4.40;99.90;;;;;;4883698;28;20666;-69
2022/03/22 06:24:26;;;;;;;3.22;2.28;;;4.50;99.90;;;;;;4908471;28;20411;-69
2022/03/22 06:26:52;;;;;;;2.63;2.42;;;4.70;99.90;;;;;;4901435;28;20050;-69
2022/03/22 06:29:17;;;;;;;2.75;1.15;;;4.80;99.90;;;;;;4856490;28;20863;-69
2022/03/22 06:31:44;;;;;;;6.43;2.92;;;4.90;99.90;;;;;;4923422;28;20046;-69
2022/03/22 06:34:09;;;;;;;2.55;2.35;;;5.00;99.90;;;;;;4961503;28;20388;-69
2022/03/22 06:36:35;;;;;;;3.45;2.97;;;5.10;99.90;;;;;;4963843;28;20058;-70
2022/03/22 06:39:00;;;;;;;3.80;3.42;;;5.20;99.90;;;;;;4950653;28;20061;-69
2022/03/22 06:41:26;;;;;;;0.40;0.40;;;5.30;99.90;;;;;;4984248;28;20577;-69
2022/03/22 06:43:51;;;;;;;2.10;1.90;;;5.40;99.90;;;;;;4966633;28;20238;-69
2022/03/22 06:46:18;;;;;;;1.15;1.15;;;5.50;99.90;;;;;;4952508;28;20159;-70
2022/03/22 06:48:43;;;;;;;2.92;2.05;;;5.60;99.90;;;;;;4993484;28;20114;-70
2022/03/22 06:51:19;;;;;;;0.35;0.35;;;5.70;99.90;;;;;;5027131;28;20537;-69
2022/03/22 06:53:45;;;;;;;1.63;1.52;;;5.80;99.90;;;;;;5014100;28;20230;-69
2022/03/22 06:56:10;;;;;;;1.80;1.70;;;5.90;99.90;;;;;;5023939;28;20087;-68
2022/03/22 06:58:36;;;;;;;3.90;2.90;;;6.00;99.90;;;;;;5036653;28;20175;-68
2022/03/22 07:01:05;;;;;;;1.10;1.10;;;6.00;99.90;;;;;;5015699;28;20041;-70
2022/03/22 07:03:30;;;;;;;1.15;1.15;;;6.10;99.90;;;;;;5037237;28;20045;-69
2022/03/22 07:05:56;;;;;;;3.95;3.65;;;6.10;99.90;;;;;;5079538;28;20079;-70
2022/03/22 07:08:23;;;;;;;1.08;0.98;;;6.20;99.90;;;;;;5073659;28;20447;-69
2022/03/22 07:11:49;;;;;;;0.30;0.30;;;6.20;99.90;;;;;;5064418;28;20602;-71
2022/03/22 07:13:34;;;;;;;0.30;0.30;;;6.40;99.90;;;;;;5058770;28;20053;-69
2022/03/22 07:16:00;;;;;;;0.50;0.50;;;6.50;99.90;;;;;;5062215;28;20056;-69
2022/03/22 07:21:47;;;;;;;1.20;1.15;;;6.80;99.90;;;;;;4922024;28;20168;-69
2022/03/22 07:24:15;;;;;;;0.30;0.30;;;7.00;99.90;;;;;;4957124;28;22549;-69
2022/03/22 07:26:41;;;;;;;3.55;2.53;;;7.10;99.90;;;;;;5011504;28;20508;-68
2022/03/22 07:29:07;;;;;;;3.83;1.67;;;7.30;99.90;;;;;;5050416;28;20105;-69
2022/03/22 07:31:39;;;;;;;0.93;0.93;;;7.40;99.90;;;;;;5063778;28;21167;-69
2022/03/22 07:34:11;;;;;;;2.92;2.70;;;7.60;99.90;;;;;;5047274;28;20087;-69
2022/03/22 07:36:37;;;;;;;5.88;2.70;;;7.70;99.90;;;;;;5057544;28;20044;-69
2022/03/22 07:39:03;;;;;;;0.20;0.20;;;7.80;99.90;;;;;;5064888;28;20055;-68
2022/03/22 07:41:29;;;;;;;1.95;1.85;;;8.00;99.90;;;;;;5066487;28;20047;-70
2022/03/22 07:43:55;;;;;;;0.47;0.47;;;8.10;99.90;;;;;;5039949;28;20137;-69
2022/03/22 07:46:47;;;;;;;2.83;0.95;;;8.30;99.90;;;;;;4953393;28;20044;-69
2022/03/22 07:55:01;;;;;;;29.92;5.00;;;9.00;99.90;;;;;;4937461;28;20033;-70
2022/03/22 07:57:30;;;;;;;8.37;5.17;;;9.30;99.90;;;;;;4917564;28;20032;-69
2022/03/22 08:00:01;;;;;;;5.97;4.38;;;9.60;99.90;;;;;;4911137;28;20158;-69
2022/03/22 08:02:32;;;;;;;4.32;3.63;;;9.80;99.90;;;;;;4882821;28;21249;-69
2022/03/22 08:04:58;;;;;;;3.05;2.80;;;10.00;99.90;;;;;;4922631;28;20038;-69
2022/03/22 08:07:24;;;;;;;4.72;3.25;;;10.20;99.90;;;;;;5051348;28;20596;-69
2022/03/22 08:09:50;;;;;;;6.03;3.60;;;10.40;99.90;;;;;;5051622;28;20045;-69
2022/03/22 08:12:15;;;;;;;3.90;2.85;;;10.60;99.90;;;;;;5057489;28;20537;-69
2022/03/22 08:14:41;;;;;;;18.85;5.30;;;10.80;99.90;;;;;;5049335;28;20497;-68
2022/03/22 08:17:06;;;;;;;5.43;2.20;;;11.00;99.90;;;;;;5031929;28;20044;-69
2022/03/22 08:19:32;;;;;;;5.07;4.22;;;11.20;99.90;;;;;;5026480;28;20179;-68
2022/03/22 08:21:58;;;;;;;1.45;1.35;;;11.50;99.90;;;;;;5017729;28;20057;-68
2022/03/22 08:24:23;;;;;;;3.83;3.38;;;11.70;99.90;;;;;;5039717;28;20101;-69
2022/03/22 08:26:49;;;;;;;2.22;2.08;;;11.80;99.90;;;;;;5066698;28;20061;-69
2022/03/22 08:29:15;;;;;;;3.28;3.05;;;12.00;99.90;;;;;;5052321;28;20044;-69
2022/03/22 08:31:40;;;;;;;2.30;2.10;;;12.10;99.90;;;;;;5044975;28;20063;-69
2022/03/22 08:34:06;;;;;;;4.45;2.10;;;12.20;99.90;;;;;;5049921;28;20132;-69
2022/03/22 08:36:33;;;;;;;5.55;3.95;;;12.30;99.90;;;;;;5066421;28;20084;-69
2022/03/22 08:38:59;;;;;;;1.98;1.85;;;12.40;99.90;;;;;;5078936;28;20437;-69
2022/03/22 08:41:25;;;;;;;3.38;2.28;;;12.60;99.90;;;;;;5067948;28;20050;-70
2022/03/22 08:43:52;;;;;;;2.92;2.60;;;12.80;99.90;;;;;;5049819;28;20056;-68
2022/03/22 08:46:20;;;;;;;2.60;2.38;;;13.00;99.90;;;;;;5049918;28;20460;-70
2022/03/22 08:48:48;;;;;;;2.30;2.00;;;13.10;99.90;;;;;;5035859;28;20048;-69
2022/03/22 08:51:15;;;;;;;2.95;2.72;;;13.20;99.90;;;;;;5080483;28;20048;-69
2022/03/22 08:53:40;;;;;;;7.10;2.75;;;13.30;99.90;;;;;;5054067;28;20467;-69
2022/03/22 08:56:06;;;;;;;2.53;2.33;;;13.40;99.90;;;;;;5034417;28;20524;-69
2022/03/22 08:58:32;;;;;;;5.60;3.47;;;13.60;99.90;;;;;;5044837;28;20132;-69
2022/03/22 09:00:59;;;;;;;7.55;4.28;;;13.80;99.90;;;;;;5019504;28;20579;-69
2022/03/22 09:03:26;;;;;;;4.07;2.22;;;13.80;99.90;;;;;;4992405;28;20037;-70
2022/03/22 09:06:07;;;;;;;2.10;1.73;;;14.00;99.90;;;;;;4983057;28;20704;-70
2022/03/22 09:08:34;;;;;;;7.10;5.03;;;14.40;99.90;;;;;;5011911;28;20117;-70
2022/03/22 09:11:00;;;;;;;1.33;1.23;;;15.00;99.90;;;;;;5031423;28;20052;-69
2022/03/22 09:13:28;;;;;;;2.00;1.90;;;15.50;99.90;;;;;;5046785;28;20040;-69
2022/03/22 09:15:55;;;;;;;2.90;2.63;;;16.10;97.20;;;;;;5044849;28;20071;-70
2022/03/22 09:18:21;;;;;;;3.63;2.58;;;16.60;96.30;;;;;;5000083;28;20574;-69
2022/03/22 09:20:48;;;;;;;1.70;1.60;;;16.80;94.50;;;;;;4978651;28;20057;-69
2022/03/22 09:23:14;;;;;;;5.72;4.28;;;16.90;95.20;;;;;;5035604;28;20317;-69
2022/03/22 09:25:43;;;;;;;3.00;2.85;;;17.20;92.10;;;;;;5040026;28;20040;-69
2022/03/22 09:28:10;;;;;;;2.20;2.00;;;17.50;87.00;;;;;;5040512;28;20028;-68
2022/03/22 09:30:38;;;;;;;0.88;0.88;;;17.80;92.10;;;;;;5051893;28;20037;-69
2022/03/22 09:33:04;;;;;;;1.65;1.58;;;18.30;89.40;;;;;;5040676;28;20040;-68
2022/03/22 09:35:31;;;;;;;8.77;5.70;;;18.50;90.00;;;;;;5055755;28;20037;-69
2022/03/22 09:37:59;;;;;;;1.42;1.33;;;18.70;84.30;;;;;;5063334;28;20115;-68
2022/03/22 09:40:26;;;;;;;5.60;4.13;;;18.90;85.80;;;;;;5036841;28;20044;-69
2022/03/22 09:42:54;;;;;;;4.28;2.45;;;19.10;73.20;;;;;;5054849;28;20052;-68
2022/03/22 09:45:24;;;;;;;2.25;2.13;;;19.20;86.70;;;;;;5031205;28;20037;-69
2022/03/22 09:47:51;;;;;;;5.55;3.58;;;19.30;79.40;;;;;;5047166;28;20033;-69
2022/03/22 09:50:17;;;;;;;2.10;2.00;;;19.30;80.10;;;;;;5046570;28;20112;-68
2022/03/22 09:52:44;;;;;;;0.55;0.55;;;19.50;75.90;;;;;;5046787;28;20044;-69
2022/03/22 09:55:11;;;;;;;0.20;0.20;;;19.70;73.60;;;;;;5030067;28;20040;-69
2022/03/22 09:57:38;;;;;;;1.40;1.35;;;19.90;75.30;;;;;;5059223;28;20040;-70
2022/03/22 10:00:09;;;;;;;7.00;4.82;;;19.90;80.10;;;;;;5058346;28;20059;-69
2022/03/22 10:02:47;;;;;;;0.90;0.90;;;20.00;80.50;;;;;;5052469;28;20041;-69
2022/03/22 10:05:23;;;;;;;2.65;1.95;;;20.00;74.30;;;;;;5049087;28;20040;-70
2022/03/22 10:08:08;;;;;;;9.38;3.22;;;20.00;66.60;;;;;;5058592;28;20552;-69
2022/03/22 10:10:55;;;;;;;1.52;1.40;;;20.00;72.90;;;;;;5079798;28;20400;-69
2022/03/22 10:13:20;;;;;;;3.92;3.38;;;19.90;65.20;;;;;;5057732;28;20044;-70
2022/03/22 10:15:46;;;;;;;3.85;3.53;;;19.90;73.00;;;;;;5007061;28;20047;-70
2022/03/22 10:18:37;;;;;;;5.80;2.17;;;19.90;65.70;;;;;;4983584;28;20512;-68
2022/03/22 10:21:04;;;;;;;3.83;1.95;;;19.80;71.10;;;;;;4962882;28;20053;-69
2022/03/22 10:23:33;;;;;;;13.27;5.10;;;19.80;67.40;;;;;;5021801;28;20064;-70
2022/03/22 10:26:09;;;;;;;11.13;6.07;;;19.70;68.50;;;;;;5011497;28;20160;-70
2022/03/22 10:28:36;;;;;;;13.85;8.18;;;19.50;69.40;;;;;;5007969;28;20502;-69
2022/03/22 10:31:02;;;;;;;20.35;5.00;;;19.30;68.00;;;;;;5025650;28;20091;-70
2022/03/22 10:33:27;;;;;;;2.17;1.98;;;19.20;66.30;;;;;;5044547;28;20056;-69
2022/03/22 10:35:53;;;;;;;1.73;0.65;;;19.10;65.60;;;;;;5010614;28;20839;-69
2022/03/22 10:38:19;;;;;;;3.50;2.67;;;19.20;65.40;;;;;;5027649;28;20309;-69
2022/03/22 10:40:46;;;;;;;1.65;1.55;;;19.40;67.90;;;;;;5010213;28;20452;-69
2022/03/22 10:43:26;;;;;;;3.55;2.22;;;19.70;69.60;;;;;;5018925;28;20047;-69
2022/03/22 10:46:02;;;;;;;2.25;2.00;;;19.80;69.20;;;;;;5027710;28;20454;-70
2022/03/22 10:48:33;;;;;;;12.18;7.82;;;19.90;69.10;;;;;;5026963;28;20044;-69
2022/03/22 10:51:00;;;;;;;15.50;3.38;;;20.00;66.20;;;;;;5026166;28;20067;-69
2022/03/22 10:53:31;;;;;;;1.33;1.23;;;20.10;66.70;;;;;;5011248;28;20052;-69
2022/03/22 10:55:59;;;;;;;0.20;0.20;;;20.20;64.00;;;;;;5027414;28;20049;-70
2022/03/22 10:58:27;;;;;;;7.80;4.60;;;20.40;63.30;;;;;;5033163;28;20066;-69
2022/03/22 11:00:54;;;;;;;6.88;3.50;;;20.40;65.40;;;;;;5062366;28;20071;-69
2022/03/22 11:03:21;;;;;;;9.65;5.63;;;20.50;64.00;;;;;;5048819;28;20044;-70
2022/03/22 11:05:50;;;;;;;15.20;2.70;;;20.40;62.00;;;;;;5064034;28;20504;-70
2022/03/22 11:08:27;;;;;;;13.77;6.22;;;20.30;62.10;;;;;;5054847;28;20397;-70
2022/03/22 11:10:54;;;;;;;15.13;7.72;;;20.30;61.10;;;;;;5065165;28;20136;-70
2022/03/22 11:13:24;;;;;;;8.00;5.25;;;20.20;58.90;;;;;;5039198;28;20327;-68
2022/03/22 11:15:51;;;;;;;5.53;2.20;;;20.00;59.40;;;;;;5045317;28;20474;-69
2022/03/22 11:18:21;;;;;;;15.18;8.65;;;19.90;60.80;;;;;;5072687;28;20056;-69
2022/03/22 11:21:01;;;;;;;2.30;2.03;;;20.00;60.30;;;;;;5059335;28;20364;-70
2022/03/22 11:23:29;;;;;;;4.65;3.30;;;20.10;58.70;;;;;;5061530;28;20051;-69
2022/03/22 11:26:31;;;;;;;3.13;2.90;;;20.30;61.60;;;;;;5030376;28;20052;-70
2022/03/22 11:28:57;;;;;;;6.10;3.83;;;20.40;60.60;;;;;;5009290;28;20064;-69
2022/03/22 11:31:26;;;;;;;2.90;2.63;;;20.50;58.70;;;;;;5065229;28;20040;-69
2022/03/22 11:34:12;;;;;;;1.73;1.55;;;20.50;60.40;;;;;;5030088;28;20094;-69
2022/03/22 11:36:41;;;;;;;3.72;3.22;;;20.60;58.60;;;;;;5049774;28;20052;-70
2022/03/22 11:39:07;;;;;;;13.60;6.00;;;20.70;60.80;;;;;;5028013;28;20409;-69
2022/03/22 11:44:23;;;;;;;6.90;4.55;;;20.80;57.10;;;;;;5064757;28;20282;-69
2022/03/22 11:47:02;;;;;;;5.07;3.35;;;20.90;58.40;;;;;;5046258;28;20049;-70
2022/03/22 11:49:27;;;;;;;2.63;2.42;;;20.80;57.70;;;;;;5026979;28;20537;-70
2022/03/22 11:55:00;;;;;;;11.15;6.18;;;20.90;57.30;;;;;;4966764;28;20469;-70
2022/03/22 11:57:27;;;;;;;0.88;0.80;;;20.90;57.30;;;;;;5004182;28;20056;-70
2022/03/22 11:59:54;;;;;;;8.43;5.70;;;20.90;57.00;;;;;;4989317;28;20053;-69
2022/03/22 12:02:26;;;;;;;124.85;12.25;;;20.90;56.50;;;;;;4989624;28;20045;-69
2022/03/22 12:04:57;;;;;;;11.40;6.38;;;20.90;55.90;;;;;;4988258;28;20076;-70
2022/03/22 12:07:30;;;;;;;3.65;3.22;;;20.80;57.00;;;;;;5001315;28;20037;-70
2022/03/22 12:10:07;;;;;;;12.93;3.30;;;20.80;55.00;;;;;;5014699;28;20041;-69
2022/03/22 12:12:35;;;;;;;6.55;4.63;;;20.80;55.80;;;;;;4996237;28;20045;-69
2022/03/22 12:15:03;;;;;;;6.95;2.10;;;21.00;55.60;;;;;;4991619;28;20077;-70
2022/03/22 12:17:30;;;;;;;4.95;3.55;;;21.10;57.00;;;;;;5001346;28;20456;-69
2022/03/22 12:20:03;;;;;;;2.38;2.20;;;21.10;55.60;;;;;;4999797;28;20053;-70
2022/03/22 12:22:30;;;;;;;2.38;1.58;;;21.10;56.30;;;;;;4997125;28;20065;-68
2022/03/22 12:25:00;;;;;;;4.25;3.65;;;21.20;56.30;;;;;;5010246;28;20078;-69
2022/03/22 12:27:26;;;;;;;5.80;5.03;;;21.30;56.80;;;;;;5001045;28;20041;-70
2022/03/22 12:29:53;;;;;;;5.25;3.30;;;21.30;56.00;;;;;;4994105;28;20496;-70
2022/03/22 12:32:21;;;;;;;5.80;5.30;;;21.20;55.30;;;;;;5032946;28;20049;-70
2022/03/22 12:34:48;;;;;;;5.20;2.88;;;21.20;54.90;;;;;;5055682;28;20505;-70
2022/03/22 12:37:17;;;;;;;2.13;1.42;;;21.20;54.70;;;;;;5051813;28;20620;-70
2022/03/22 12:39:46;;;;;;;6.90;4.45;;;21.20;54.00;;;;;;5045973;28;20120;-70
2022/03/22 12:42:25;;;;;;;7.28;5.15;;;21.20;53.70;;;;;;4931561;28;21185;-70
2022/03/22 12:44:51;;;;;;;7.53;4.35;;;21.20;54.90;;;;;;4957214;28;20303;-70
2022/03/22 12:47:26;;;;;;;1.88;1.73;;;21.10;53.60;;;;;;4952038;28;20481;-70
2022/03/22 12:49:51;;;;;;;1.15;0.90;;;21.00;55.10;;;;;;4946718;28;20059;-70
2022/03/22 12:52:17;;;;;;;7.10;4.05;;;21.00;55.30;;;;;;4956180;28;20343;-70
2022/03/22 12:54:46;;;;;;;8.70;2.45;;;20.90;54.90;;;;;;4942263;28;20041;-70
2022/03/22 12:57:40;;;;;;;3.47;2.33;;;20.90;55.60;;;;;;4929187;28;21956;-70
2022/03/22 13:00:08;;;;;;;5.68;2.88;;;21.00;55.30;;;;;;4972198;28;20509;-70
2022/03/22 13:02:38;;;;;;;8.48;3.50;;;20.90;54.20;;;;;;5003643;28;20067;-70
2022/03/22 13:05:25;;;;;;;8.13;3.78;;;21.00;55.10;;;;;;5040878;28;20060;-69
2022/03/22 13:07:51;;;;;;;1.25;1.15;;;21.00;55.50;;;;;;4939785;28;20681;-70
2022/03/22 13:16:30;;;;;;;3.90;3.17;;;20.90;50.20;;;;;;4925645;29;20051;-70
2022/03/22 13:19:00;;;;;;;6.30;5.68;;;20.90;52.80;;;;;;4929319;29;20177;-70
2022/03/22 13:21:30;;;;;;;21.90;8.10;;;20.80;53.40;;;;;;4915357;29;20428;-70
2022/03/22 13:24:23;;;;;;;8.73;1.90;;;20.80;53.20;;;;;;4921039;29;20111;-70
2022/03/22 13:26:57;;;;;;;5.65;1.05;;;20.80;53.30;;;;;;4918131;29;20559;-69
2022/03/22 13:29:25;;;;;;;3.38;2.75;;;20.80;53.70;;;;;;4920907;29;20047;-70
2022/03/22 13:31:59;;;;;;;1.40;1.30;;;20.80;52.20;;;;;;4931634;29;20138;-69
2022/03/22 13:34:27;;;;;;;1.48;1.38;;;20.80;53.00;;;;;;4928494;29;20056;-70
2022/03/22 13:37:16;;;;;;;1.77;1.67;;;20.90;53.70;;;;;;4938913;28;20058;-70
2022/03/22 13:39:50;;;;;;;3.33;3.10;;;21.00;53.40;;;;;;4952543;28;20054;-70
2022/03/22 13:42:21;;;;;;;2.75;1.77;;;21.00;53.50;;;;;;4959701;28;20054;-69
2022/03/22 13:45:10;;;;;;;3.20;1.15;;;21.00;53.40;;;;;;4932383;28;20390;-70
2022/03/22 13:47:52;;;;;;;1.50;1.40;;;21.20;53.30;;;;;;4916676;28;21699;-70
2022/03/22 13:50:20;;;;;;;1.63;0.90;;;21.20;53.40;;;;;;4952959;28;20043;-70
2022/03/22 13:53:04;;;;;;;6.93;4.38;;;21.30;52.60;;;;;;4982549;28;20080;-70
2022/03/22 13:55:31;;;;;;;2.42;2.22;;;21.40;53.40;;;;;;5040438;28;20043;-68
2022/03/22 13:57:59;;;;;;;3.00;2.22;;;21.30;52.60;;;;;;5055713;28;20048;-69
2022/03/22 14:00:25;;;;;;;3.13;2.83;;;21.30;52.70;;;;;;5053753;28;20269;-70
2022/03/22 14:02:52;;;;;;;4.93;3.58;;;21.30;52.60;;;;;;5057903;28;20559;-70
2022/03/22 14:05:18;;;;;;;2.60;2.40;;;21.20;53.00;;;;;;5059504;28;20045;-70
2022/03/22 14:07:54;;;;;;;2.08;1.85;;;21.20;53.10;;;;;;5050095;28;20090;-70
2022/03/22 14:10:20;;;;;;;1.13;1.02;;;21.20;51.10;;;;;;5022255;28;20033;-70
2022/03/22 14:20:30;;;;;;;2.53;2.13;;;21.40;53.40;;;;;;4914527;28;20427;-71
2022/03/22 14:23:27;;;;;;;5.93;3.63;;;21.30;52.30;;;;;;4800875;28;20319;-71
2022/03/22 14:26:08;;;;;;;0.88;0.88;;;21.20;51.90;;;;;;4812935;28;20501;-69
2022/03/22 14:28:37;;;;;;;2.25;1.85;;;21.20;53.30;;;;;;4775438;28;20423;-70
2022/03/22 14:31:04;;;;;;;0.88;0.88;;;21.30;53.60;;;;;;4864956;28;20113;-71
2022/03/22 14:33:30;;;;;;;2.85;1.95;;;21.40;52.10;;;;;;4921466;28;20426;-70
2022/03/22 14:35:57;;;;;;;3.38;3.13;;;21.50;52.20;;;;;;4950461;28;20104;-70